createdAt,value
2017-03-06T06:59:38.864Z,997.9
2017-03-06T07:00:38.872Z,997.96
2017-03-06T07:01:38.891Z,997.91
2017-03-06T07:02:38.925Z,997.93
2017-03-06T07:03:38.980Z,997.93
2017-03-06T07:04:38.977Z,997.95
2017-03-06T07:05:39.039Z,997.98
2017-03-06T07:06:39.044Z,997.96
2017-03-06T07:07:39.063Z,997.92
2017-03-06T07:08:39.088Z,997.87
2017-03-06T07:09:39.141Z,997.93
2017-03-06T07:10:39.146Z,997.91
2017-03-06T07:11:39.211Z,997.88
2017-03-06T07:12:39.199Z,997.89
2017-03-06T07:13:39.243Z,997.88
2017-03-06T07:14:39.253Z,997.85
2017-03-06T07:15:39.285Z,997.83
2017-03-06T07:16:39.310Z,997.83
2017-03-06T07:17:39.365Z,997.84
2017-03-06T07:18:39.392Z,997.8
2017-03-06T07:19:39.389Z,997.79
2017-03-06T07:20:39.421Z,997.8
2017-03-06T07:21:39.475Z,997.81
2017-03-06T07:22:39.503Z,997.81
2017-03-06T07:23:39.499Z,997.81
2017-03-06T07:24:39.528Z,997.83
2017-03-06T07:25:39.586Z,997.74
2017-03-06T07:26:39.586Z,997.8
2017-03-06T07:27:39.615Z,997.74
2017-03-06T07:28:39.643Z,997.8
2017-03-06T07:29:39.697Z,997.84
2017-03-06T07:30:39.792Z,997.77
2017-03-06T07:31:39.726Z,997.74
2017-03-06T07:32:39.775Z,997.74
2017-03-06T07:33:39.778Z,997.76
2017-03-06T07:34:39.798Z,997.76
2017-03-06T07:35:39.860Z,997.77
2017-03-06T07:36:39.867Z,997.76
2017-03-06T07:37:39.882Z,997.73
2017-03-06T07:38:39.918Z,997.79
2017-03-06T07:39:39.973Z,997.76
2017-03-06T07:40:40.000Z,997.77
2017-03-06T07:41:39.997Z,997.8
2017-03-06T07:42:40.032Z,997.73
2017-03-06T07:43:40.060Z,997.83
2017-03-06T07:44:40.085Z,997.79
2017-03-06T07:45:40.116Z,997.81
2017-03-06T07:46:40.170Z,997.8
2017-03-06T07:47:40.196Z,997.79
2017-03-06T07:48:40.190Z,997.84
2017-03-06T07:49:40.255Z,997.81
2017-03-06T07:50:40.256Z,997.82
2017-03-06T07:51:40.274Z,997.81
2017-03-06T07:52:40.312Z,997.81
2017-03-06T07:53:40.367Z,997.85
2017-03-06T07:54:40.398Z,997.87
2017-03-06T07:55:40.392Z,997.87
2017-03-06T07:56:40.430Z,997.83
2017-03-06T07:57:40.485Z,997.83
2017-03-06T07:58:40.489Z,997.8
2017-03-06T07:59:40.545Z,997.83
2017-03-06T08:00:40.547Z,997.85
2017-03-06T08:01:40.605Z,997.82
2017-03-06T08:02:40.608Z,997.83
2017-03-06T08:03:40.634Z,997.78
2017-03-06T08:04:40.671Z,997.75
2017-03-06T08:05:40.686Z,997.75
2017-03-06T08:06:40.728Z,997.82
2017-03-06T08:07:40.758Z,997.76
2017-03-06T08:08:40.788Z,997.73
2017-03-06T08:09:40.817Z,997.76
2017-03-06T08:10:40.852Z,997.73
2017-03-06T08:11:40.898Z,997.74
2017-03-06T08:12:40.908Z,997.69
2017-03-06T08:13:40.967Z,997.7
2017-03-06T08:14:40.975Z,997.72
2017-03-06T08:15:41.010Z,997.71
2017-03-06T08:16:41.070Z,997.71
2017-03-06T08:17:41.103Z,997.7
2017-03-06T08:18:41.088Z,997.7
2017-03-06T08:19:41.124Z,997.66
2017-03-06T08:20:41.161Z,997.66
2017-03-06T08:21:41.185Z,997.69
2017-03-06T08:22:41.235Z,997.69
2017-03-06T08:23:41.260Z,997.65
2017-03-06T08:24:41.289Z,997.64
2017-03-06T08:25:41.321Z,997.69
2017-03-06T08:26:41.339Z,997.65
2017-03-06T08:27:41.398Z,997.62
2017-03-06T08:28:41.400Z,997.58
2017-03-06T08:29:41.431Z,997.63
2017-03-06T08:30:41.466Z,997.65
2017-03-06T08:31:41.490Z,997.61
2017-03-06T08:32:41.523Z,997.64
2017-03-06T08:33:41.555Z,997.63
2017-03-06T08:34:41.579Z,997.62
2017-03-06T08:35:41.618Z,997.63
2017-03-06T08:36:41.647Z,997.68
2017-03-06T08:37:41.704Z,997.63
2017-03-06T08:38:41.707Z,997.6
2017-03-06T08:39:41.764Z,997.62
2017-03-06T08:40:41.794Z,997.58
2017-03-06T08:41:41.794Z,997.61
2017-03-06T08:42:41.855Z,997.56
2017-03-06T08:43:41.859Z,997.59
2017-03-06T08:44:41.886Z,997.61
2017-03-06T08:45:41.919Z,997.55
2017-03-06T08:46:41.952Z,997.55
2017-03-06T08:47:41.980Z,997.59
2017-03-06T08:48:42.012Z,997.57
2017-03-06T08:49:42.043Z,997.56
2017-03-06T08:50:42.100Z,997.62
2017-03-06T08:51:42.102Z,997.57
2017-03-06T08:52:42.134Z,997.59
2017-03-06T08:53:42.190Z,997.55
2017-03-06T08:54:42.184Z,997.55
2017-03-06T08:55:42.217Z,997.6
2017-03-06T08:56:42.251Z,997.58
2017-03-06T08:57:42.287Z,997.53
2017-03-06T08:58:42.315Z,997.56
2017-03-06T08:59:42.372Z,997.6
2017-03-06T09:00:42.404Z,997.58
2017-03-06T09:01:42.407Z,997.62
2017-03-06T09:02:42.465Z,997.59
2017-03-06T09:03:42.497Z,997.59
2017-03-06T09:04:42.488Z,997.61
2017-03-06T09:05:42.520Z,997.57
2017-03-06T09:06:42.589Z,997.55
2017-03-06T09:07:42.587Z,997.58
2017-03-06T09:08:42.626Z,997.57
2017-03-06T09:09:42.680Z,997.58
2017-03-06T09:10:42.688Z,997.57
2017-03-06T09:11:42.716Z,997.55
2017-03-06T09:12:42.775Z,997.55
2017-03-06T09:13:42.807Z,997.57
2017-03-06T09:14:42.806Z,997.58
2017-03-06T09:15:42.871Z,997.55
2017-03-06T09:16:42.905Z,997.56
2017-03-06T09:17:42.897Z,997.54
2017-03-06T09:18:42.937Z,997.56
2017-03-06T09:19:42.993Z,997.57
2017-03-06T09:20:42.992Z,997.51
2017-03-06T09:21:43.031Z,997.53
2017-03-06T09:22:43.059Z,997.54
2017-03-06T09:23:43.117Z,997.58
2017-03-06T09:24:43.124Z,997.55
2017-03-06T09:25:43.180Z,997.53
2017-03-06T09:26:43.185Z,997.53
2017-03-06T09:27:43.213Z,997.55
2017-03-06T09:28:43.277Z,997.51
2017-03-06T09:29:43.281Z,997.53
2017-03-06T09:30:43.308Z,997.47
2017-03-06T09:31:43.340Z,997.52
2017-03-06T09:32:43.378Z,997.46
2017-03-06T09:33:43.393Z,997.43
2017-03-06T09:34:43.438Z,997.52
2017-03-06T09:35:43.467Z,997.49
2017-03-06T09:36:43.495Z,997.48
2017-03-06T09:37:43.556Z,997.45
2017-03-06T09:38:43.560Z,997.51
2017-03-06T09:39:43.614Z,997.49
2017-03-06T09:40:43.622Z,997.46
2017-03-06T09:41:43.679Z,997.47
2017-03-06T09:42:43.682Z,997.48
2017-03-06T09:43:43.707Z,997.47
2017-03-06T09:44:43.775Z,997.49
2017-03-06T09:45:43.778Z,997.51
2017-03-06T09:46:43.800Z,997.48
2017-03-06T09:47:43.864Z,997.46
2017-03-06T09:48:43.866Z,997.5
2017-03-06T09:49:43.894Z,997.48
2017-03-06T09:50:43.932Z,997.5
2017-03-06T09:51:43.954Z,997.54
2017-03-06T09:52:44.018Z,997.52
2017-03-06T09:53:44.042Z,997.54
2017-03-06T09:54:44.077Z,997.51
2017-03-06T09:55:44.083Z,997.49
2017-03-06T09:56:44.112Z,997.51
2017-03-06T09:57:44.143Z,997.48
2017-03-06T09:58:44.201Z,997.51
2017-03-06T09:59:44.197Z,997.46
2017-03-06T10:00:44.235Z,997.44
2017-03-06T10:01:44.265Z,997.52
2017-03-06T10:02:44.293Z,997.52
2017-03-06T10:03:44.353Z,997.49
2017-03-06T10:04:44.355Z,997.55
2017-03-06T10:05:44.413Z,997.48
2017-03-06T10:06:44.420Z,997.44
2017-03-06T10:07:44.476Z,997.44
2017-03-06T10:08:44.504Z,997.44
2017-03-06T10:09:44.500Z,997.46
2017-03-06T10:10:44.540Z,997.48
2017-03-06T10:11:44.597Z,997.42
2017-03-06T10:12:44.597Z,997.46
2017-03-06T10:13:44.626Z,997.46
2017-03-06T10:14:44.684Z,997.49
2017-03-06T10:15:44.683Z,997.41
2017-03-06T10:16:44.745Z,997.46
2017-03-06T10:17:44.747Z,997.49
2017-03-06T10:18:44.804Z,997.44
2017-03-06T10:19:44.795Z,997.46
2017-03-06T10:20:44.864Z,997.48
2017-03-06T10:21:44.863Z,997.45
2017-03-06T10:22:44.916Z,997.5
2017-03-06T10:23:44.922Z,997.49
2017-03-06T10:24:44.957Z,997.47
2017-03-06T10:25:45.013Z,997.48
2017-03-06T10:26:45.014Z,997.46
2017-03-06T10:27:45.048Z,997.46
2017-03-06T10:28:45.072Z,997.47
2017-03-06T10:29:45.103Z,997.49
2017-03-06T10:30:45.136Z,997.52
2017-03-06T10:31:45.169Z,997.53
2017-03-06T10:32:45.197Z,997.53
2017-03-06T10:33:45.230Z,997.52
2017-03-06T10:34:45.252Z,997.57
2017-03-06T10:35:45.289Z,997.5
2017-03-06T10:36:45.311Z,997.52
2017-03-06T10:37:45.348Z,997.54
2017-03-06T10:38:45.379Z,997.55
2017-03-06T10:39:45.403Z,997.53
2017-03-06T10:40:45.434Z,997.54
2017-03-06T10:41:45.466Z,997.57
2017-03-06T10:42:45.524Z,997.57
2017-03-06T10:43:45.525Z,997.59
2017-03-06T10:44:45.557Z,997.57
2017-03-06T10:45:45.616Z,997.58
2017-03-06T10:46:45.610Z,997.58
2017-03-06T10:47:45.671Z,997.56
2017-03-06T10:48:45.678Z,997.55
2017-03-06T10:49:45.707Z,997.57
2017-03-06T10:50:45.737Z,997.52
2017-03-06T10:51:45.762Z,997.48
2017-03-06T10:52:45.820Z,997.53
2017-03-06T10:53:45.827Z,997.5
2017-03-06T10:54:45.878Z,997.51
2017-03-06T10:55:45.912Z,997.47
2017-03-06T10:56:45.914Z,997.49
2017-03-06T10:57:45.944Z,997.47
2017-03-06T10:58:45.977Z,997.44
2017-03-06T10:59:46.029Z,997.41
2017-03-06T11:00:46.027Z,997.44
2017-03-06T11:01:46.084Z,997.45
2017-03-06T11:02:46.118Z,997.42
2017-03-06T11:03:46.123Z,997.43
2017-03-06T11:04:46.154Z,997.41
2017-03-06T11:05:46.211Z,997.44
2017-03-06T11:06:46.210Z,997.43
2017-03-06T11:07:46.269Z,997.47
2017-03-06T11:08:46.269Z,997.44
2017-03-06T11:09:46.329Z,997.45
2017-03-06T11:10:46.459Z,997.42
2017-03-06T11:11:46.354Z,997.45
2017-03-06T11:12:46.395Z,997.43
2017-03-06T11:13:46.413Z,997.36
2017-03-06T11:14:46.453Z,997.42
2017-03-06T11:15:46.478Z,997.45
2017-03-06T11:16:46.508Z,997.41
2017-03-06T11:17:46.566Z,997.44
2017-03-06T11:18:46.600Z,997.43
2017-03-06T11:19:46.628Z,997.47
2017-03-06T11:20:46.631Z,997.44
2017-03-06T11:21:46.652Z,997.49
2017-03-06T11:22:46.696Z,997.45
2017-03-06T11:23:46.718Z,997.4
2017-03-06T11:24:46.756Z,997.4
2017-03-06T11:25:46.785Z,997.37
2017-03-06T11:26:46.812Z,997.31
2017-03-06T11:27:46.848Z,997.35
2017-03-06T11:28:46.873Z,997.31
2017-03-06T11:29:46.939Z,997.3
2017-03-06T11:30:46.963Z,997.29
2017-03-06T11:31:46.972Z,997.32
2017-03-06T11:32:47.005Z,997.3
2017-03-06T11:33:47.029Z,997.34
2017-03-06T11:34:47.064Z,997.26
2017-03-06T11:35:47.086Z,997.26
2017-03-06T11:36:47.118Z,997.26
2017-03-06T11:37:47.152Z,997.23
2017-03-06T11:38:47.184Z,997.23
2017-03-06T11:39:47.218Z,997.23
2017-03-06T11:40:47.253Z,997.23
2017-03-06T11:41:47.281Z,997.26
2017-03-06T11:42:47.307Z,997.24
2017-03-06T11:43:47.348Z,997.26
2017-03-06T11:44:47.380Z,997.28
2017-03-06T11:45:47.432Z,997.22
2017-03-06T11:46:47.433Z,997.21
2017-03-06T11:47:47.471Z,997.23
2017-03-06T11:48:47.529Z,997.22
2017-03-06T11:49:47.521Z,997.23
2017-03-06T11:50:47.564Z,997.15
2017-03-06T11:51:47.597Z,997.16
2017-03-06T11:52:47.624Z,997.18
2017-03-06T11:53:47.649Z,997.16
2017-03-06T11:54:47.683Z,997.19
2017-03-06T11:55:47.716Z,997.19
2017-03-06T11:56:47.751Z,997.17
2017-03-06T11:57:47.780Z,997.13
2017-03-06T11:58:47.811Z,997.18
2017-03-06T11:59:47.868Z,997.19
2017-03-06T12:00:47.875Z,997.17
2017-03-06T12:01:47.933Z,997.18
2017-03-06T12:02:47.930Z,997.22
2017-03-06T12:03:47.965Z,997.16
2017-03-06T12:04:48.025Z,997.16
2017-03-06T12:05:48.018Z,997.21
2017-03-06T12:06:48.061Z,997.2
2017-03-06T12:07:48.092Z,997.18
2017-03-06T12:08:48.115Z,997.2
2017-03-06T12:09:48.152Z,997.2
2017-03-06T12:10:48.184Z,997.22
2017-03-06T12:11:48.214Z,997.22
2017-03-06T12:12:48.247Z,997.18
2017-03-06T12:13:48.277Z,997.15
2017-03-06T12:14:48.336Z,997.19
2017-03-06T12:15:48.336Z,997.18
2017-03-06T12:16:48.371Z,997.21
2017-03-06T12:17:48.402Z,997.19
2017-03-06T12:18:48.432Z,997.17
2017-03-06T12:19:48.462Z,997.16
2017-03-06T12:20:48.495Z,997.17
2017-03-06T12:21:48.521Z,997.14
2017-03-06T12:22:48.583Z,997.16
2017-03-06T12:23:48.578Z,997.13
2017-03-06T12:24:48.643Z,997.16
2017-03-06T12:25:48.672Z,997.14
2017-03-06T12:26:48.679Z,997.12
2017-03-06T12:27:48.713Z,997.13
2017-03-06T12:28:48.734Z,997.11
2017-03-06T12:29:48.773Z,997.08
2017-03-06T12:30:48.793Z,997.12
2017-03-06T12:31:48.834Z,997.1
2017-03-06T12:32:48.866Z,997.1
2017-03-06T12:33:48.948Z,997.1
2017-03-06T12:34:48.925Z,997.07
2017-03-06T12:35:49.058Z,997.08
2017-03-06T12:36:48.984Z,997
2017-03-06T12:37:49.047Z,997.01
2017-03-06T12:38:49.042Z,997.05
2017-03-06T12:39:49.085Z,997.09
2017-03-06T12:40:49.112Z,996.97
2017-03-06T12:41:49.136Z,996.98
2017-03-06T12:42:49.171Z,996.96
2017-03-06T12:43:49.202Z,996.95
2017-03-06T12:44:49.256Z,996.99
2017-03-06T12:45:49.259Z,996.96
2017-03-06T12:46:49.322Z,996.95
2017-03-06T12:47:49.326Z,996.97
2017-03-06T12:48:49.351Z,996.97
2017-03-06T12:49:49.378Z,997
2017-03-06T12:50:49.443Z,997.01
2017-03-06T12:51:49.438Z,997.03
2017-03-06T12:52:49.476Z,997.05
2017-03-06T12:53:49.509Z,997.02
2017-03-06T12:54:49.548Z,997
2017-03-06T12:55:49.566Z,997.04
2017-03-06T12:56:49.598Z,997.04
2017-03-06T12:57:49.652Z,997.04
2017-03-06T12:58:49.657Z,997.08
2017-03-06T12:59:49.686Z,997.05
2017-03-06T13:00:49.726Z,997.02
2017-03-06T13:01:49.743Z,997.01
2017-03-06T13:02:49.803Z,997.01
2017-03-06T13:03:49.813Z,997.04
2017-03-06T13:04:49.838Z,997.03
2017-03-06T13:05:49.871Z,997.03
2017-03-06T13:06:49.924Z,997.02
2017-03-06T13:07:49.957Z,997.06
2017-03-06T13:08:49.960Z,997.07
2017-03-06T13:09:49.991Z,997.05
2017-03-06T13:10:50.047Z,997.06
2017-03-06T13:11:50.050Z,997.07
2017-03-06T13:12:50.078Z,997.05
2017-03-06T13:13:50.113Z,997.05
2017-03-06T13:14:50.139Z,997.04
2017-03-06T13:15:50.167Z,997.08
2017-03-06T13:16:50.202Z,997.02
2017-03-06T13:17:50.232Z,997.04
2017-03-06T13:18:50.262Z,996.96
2017-03-06T13:19:50.322Z,997.03
2017-03-06T13:20:50.324Z,997.01
2017-03-06T13:21:50.443Z,997.03
2017-03-06T13:22:50.411Z,996.98
2017-03-06T13:23:50.416Z,997.04
2017-03-06T13:24:50.441Z,996.98
2017-03-06T13:25:50.473Z,997.01
2017-03-06T13:26:50.503Z,996.99
2017-03-06T13:27:50.556Z,996.99
2017-03-06T13:28:50.565Z,997.02
2017-03-06T13:29:50.591Z,996.98
2017-03-06T13:30:50.622Z,996.98
2017-03-06T13:31:50.657Z,996.98
2017-03-06T13:32:50.686Z,996.98
2017-03-06T13:33:50.714Z,996.97
2017-03-06T13:34:50.737Z,996.92
2017-03-06T13:35:50.775Z,996.96
2017-03-06T13:36:50.806Z,996.95
2017-03-06T13:37:50.836Z,996.95
2017-03-06T13:38:50.861Z,997
2017-03-06T13:39:50.896Z,996.94
2017-03-06T13:40:50.954Z,996.95
2017-03-06T13:41:50.964Z,996.97
2017-03-06T13:42:50.982Z,996.94
2017-03-06T13:43:51.047Z,996.96
2017-03-06T13:44:51.040Z,996.99
2017-03-06T13:45:51.078Z,997
2017-03-06T13:46:51.101Z,996.94
2017-03-06T13:47:51.131Z,996.93
2017-03-06T13:48:51.191Z,996.9
2017-03-06T13:49:51.224Z,996.93
2017-03-06T13:50:51.257Z,996.94
2017-03-06T13:51:51.253Z,996.93
2017-03-06T13:52:51.288Z,996.95
2017-03-06T13:53:51.344Z,996.95
2017-03-06T13:54:51.335Z,996.94
2017-03-06T13:55:51.399Z,996.96
2017-03-06T13:56:51.410Z,996.93
2017-03-06T13:57:51.435Z,996.96
2017-03-06T13:58:51.468Z,996.95
2017-03-06T13:59:51.496Z,996.94
2017-03-06T14:00:51.528Z,996.97
2017-03-06T14:01:51.576Z,996.92
2017-03-06T14:02:51.591Z,996.92
2017-03-06T14:03:51.649Z,996.92
2017-03-06T14:04:51.643Z,997.01
2017-03-06T14:05:51.678Z,996.92
2017-03-06T14:06:51.711Z,996.91
2017-03-06T14:07:51.732Z,996.92
2017-03-06T14:08:51.773Z,996.94
2017-03-06T14:09:51.797Z,996.89
2017-03-06T14:10:51.856Z,996.94
2017-03-06T14:11:51.885Z,996.94
2017-03-06T14:12:51.889Z,996.9
2017-03-06T14:13:51.946Z,996.9
2017-03-06T14:14:51.937Z,996.93
2017-03-06T14:15:51.977Z,996.92
2017-03-06T14:16:52.036Z,996.95
2017-03-06T14:17:52.039Z,996.94
2017-03-06T14:18:52.070Z,996.93
2017-03-06T14:19:52.099Z,997
2017-03-06T14:20:52.156Z,996.99
2017-03-06T14:21:52.186Z,996.99
2017-03-06T14:22:52.181Z,996.98
2017-03-06T14:23:52.247Z,996.98
2017-03-06T14:24:52.239Z,996.99
2017-03-06T14:25:52.280Z,996.96
2017-03-06T14:26:52.307Z,996.99
2017-03-06T14:27:52.340Z,997.05
2017-03-06T14:28:52.369Z,996.96
2017-03-06T14:29:52.399Z,997.08
2017-03-06T14:30:52.454Z,997.08
2017-03-06T14:31:52.459Z,997.07
2017-03-06T14:32:52.487Z,997.13
2017-03-06T14:33:52.542Z,997.12
2017-03-06T14:34:52.542Z,997.11
2017-03-06T14:35:52.576Z,997.15
2017-03-06T14:36:52.628Z,997.13
2017-03-06T14:37:52.635Z,997.06
2017-03-06T14:38:52.661Z,997.14
2017-03-06T14:39:52.716Z,997.16
2017-03-06T14:40:52.748Z,997.17
2017-03-06T14:41:52.741Z,997.1
2017-03-06T14:42:52.805Z,997.14
2017-03-06T14:43:52.801Z,997.12
2017-03-06T14:44:52.863Z,997.13
2017-03-06T14:45:52.863Z,997.16
2017-03-06T14:46:52.921Z,997.2
2017-03-06T14:47:52.947Z,997.18
